createdAt,value
2022-10-15T06:32:00.072Z,-139.43
2022-10-15T06:32:57.201Z,-139.43
2022-10-15T06:33:56.962Z,-139.43
2022-10-15T06:34:56.939Z,-138.21
2022-10-15T06:35:56.930Z,-138.21
2022-10-15T06:36:56.949Z,-139.43
2022-10-15T06:38:00.694Z,-139.43
2022-10-15T06:38:57.872Z,-139.43
2022-10-15T06:39:56.902Z,-139.43
2022-10-15T06:40:56.858Z,-139.43
2022-10-15T06:41:56.842Z,-139.43
2022-10-15T06:42:56.854Z,-139.43
2022-10-15T06:43:56.872Z,-139.43
2022-10-15T06:44:56.803Z,-139.43
2022-10-15T06:45:56.783Z,-139.43
2022-10-15T06:46:56.784Z,-139.43
2022-10-15T06:47:56.765Z,-139.43
2022-10-15T06:48:56.743Z,-139.43
2022-10-15T06:49:56.782Z,-140.65
2022-10-15T06:50:59.723Z,-139.43
2022-10-15T06:52:03.410Z,-139.43
2022-10-15T06:53:56.678Z,-139.43
2022-10-15T06:54:56.711Z,-139.43
2022-10-15T06:55:56.637Z,-139.43
2022-10-15T06:56:56.641Z,-140.65
2022-10-15T06:57:56.631Z,-140.65
2022-10-15T06:58:56.621Z,-140.65
2022-10-15T06:59:56.608Z,-140.65
2022-10-15T07:00:56.609Z,-140.65
2022-10-15T07:01:56.584Z,-140.65
2022-10-15T07:02:56.556Z,-140.65
2022-10-15T07:03:56.587Z,-140.65
2022-10-15T07:04:56.527Z,-140.65
2022-10-15T07:05:56.517Z,-140.65
2022-10-15T07:06:56.520Z,-140.65
2022-10-15T07:07:56.480Z,-140.65
2022-10-15T07:08:56.500Z,-140.65
2022-10-15T07:09:56.470Z,-140.65
2022-10-15T07:10:56.453Z,-140.65
2022-10-15T07:11:59.461Z,-140.65
2022-10-15T07:12:59.471Z,-140.65
2022-10-15T07:13:56.439Z,-140.65
2022-10-15T07:14:56.393Z,-140.65
2022-10-15T07:15:56.434Z,-140.65
2022-10-15T07:16:56.372Z,-140.65
2022-10-15T07:17:56.353Z,-141.87
2022-10-15T07:18:56.355Z,-141.87
2022-10-15T07:19:56.334Z,-141.87
2022-10-15T07:20:56.394Z,-141.87
2022-10-15T07:21:56.313Z,-141.87
2022-10-15T07:22:56.308Z,-141.87
2022-10-15T07:23:56.265Z,-141.87
2022-10-15T07:24:56.255Z,-141.87
2022-10-15T07:25:56.244Z,-141.87
2022-10-15T07:26:56.255Z,-141.87
2022-10-15T07:27:56.221Z,-141.87
2022-10-15T07:28:56.245Z,-143.08
2022-10-15T07:29:56.228Z,-141.87
2022-10-15T07:30:56.166Z,-143.08
2022-10-15T07:31:59.155Z,-143.08
2022-10-15T07:32:59.158Z,-141.87
2022-10-15T07:33:56.152Z,-141.87
2022-10-15T07:34:56.134Z,-141.87
2022-10-15T07:35:56.128Z,-143.08
2022-10-15T07:36:56.085Z,-143.08
2022-10-15T07:37:56.069Z,-143.08
2022-10-15T07:38:56.090Z,-143.08
2022-10-15T07:39:56.040Z,-144.30
2022-10-15T07:40:56.040Z,-144.30
2022-10-15T07:41:56.011Z,-144.30
2022-10-15T07:42:56.000Z,-144.30
2022-10-15T07:43:56.994Z,-144.30
2022-10-15T07:44:56.001Z,-144.30
2022-10-15T07:45:56.011Z,-144.30
2022-10-15T07:46:55.952Z,-144.30
2022-10-15T07:47:55.945Z,-144.30
2022-10-15T07:48:55.924Z,-144.30
2022-10-15T07:49:55.921Z,-144.30
2022-10-15T07:50:55.894Z,-144.30
2022-10-15T07:51:58.912Z,-144.30
2022-10-15T07:52:58.885Z,-145.52
2022-10-15T07:53:55.864Z,-145.52
2022-10-15T07:54:55.837Z,-145.52
2022-10-15T07:55:55.840Z,-145.52
2022-10-15T07:56:55.846Z,-145.52
2022-10-15T07:57:55.786Z,-145.52
2022-10-15T07:58:55.786Z,-145.52
2022-10-15T07:59:55.759Z,-145.52
2022-10-15T08:00:55.768Z,-145.52
2022-10-15T08:01:55.887Z,-146.74
2022-10-15T12:45:32.666Z,-156.48
2022-10-15T12:46:26.378Z,-156.48
2022-10-15T12:47:29.507Z,-156.48
2022-10-15T12:48:26.286Z,-156.48
2022-10-15T12:49:26.384Z,-156.48
2022-10-15T12:50:32.006Z,-157.70
2022-10-15T12:51:26.305Z,-157.70
2022-10-15T12:52:26.256Z,-156.48
2022-10-15T12:53:26.473Z,-156.48
2022-10-15T12:54:26.348Z,-157.70
2022-10-15T12:55:26.216Z,-157.70
2022-10-15T12:56:26.854Z,-157.70
2022-10-15T12:57:26.588Z,-156.48
2022-10-15T12:58:26.338Z,-156.48
2022-10-15T12:59:31.023Z,-156.48
2022-10-15T13:00:26.931Z,-156.48
2022-10-15T13:01:37.645Z,-156.48
2022-10-15T13:02:37.492Z,-156.48
2022-10-15T13:03:27.230Z,-156.48
2022-10-15T13:04:29.146Z,-156.48
2022-10-15T13:05:29.207Z,-157.70
2022-10-15T13:06:29.406Z,-157.70
2022-10-15T13:07:26.477Z,-157.70
2022-10-15T13:08:26.066Z,-157.70
2022-10-15T13:09:26.228Z,-157.70
2022-10-15T13:10:26.050Z,-157.70
2022-10-15T13:11:26.269Z,-157.70
2022-10-15T13:12:47.235Z,-157.70
2022-10-15T13:13:26.503Z,-158.91
2022-10-15T13:14:26.016Z,-158.91
2022-10-15T13:15:27.056Z,-158.91
2022-10-15T13:16:30.469Z,-158.91
2022-10-15T13:17:26.044Z,-158.91
2022-10-15T13:18:26.285Z,-158.91
2022-10-15T13:19:25.999Z,-158.91
2022-10-15T13:20:26.862Z,-158.91
2022-10-15T13:21:26.092Z,-158.91
2022-10-15T13:22:26.228Z,-158.91
2022-10-15T13:23:33.056Z,-158.91
2022-10-15T13:24:26.878Z,-158.91
2022-10-15T13:25:28.794Z,-158.91
2022-10-15T13:26:29.040Z,-157.70
2022-10-15T13:27:26.060Z,-157.70
2022-10-15T13:28:25.929Z,-157.70
2022-10-15T13:29:26.067Z,-157.70
2022-10-15T13:30:30.396Z,-157.70
2022-10-15T13:31:30.091Z,-157.70
2022-10-15T13:32:29.430Z,-157.70
2022-10-15T13:33:26.986Z,-157.70
2022-10-15T13:34:25.776Z,-157.70
2022-10-15T13:35:25.874Z,-157.70
2022-10-15T13:36:25.906Z,-157.70
2022-10-15T13:37:25.679Z,-157.70
2022-10-15T13:38:29.785Z,-156.48
2022-10-15T13:39:46.946Z,-157.70
2022-10-15T13:40:26.721Z,-157.70
2022-10-15T13:41:25.611Z,-156.48
2022-10-15T13:42:26.061Z,-156.48
2022-10-15T13:43:25.551Z,-156.48
2022-10-15T13:44:25.680Z,-156.48
2022-10-15T13:45:33.431Z,-156.48
2022-10-15T13:46:28.619Z,-156.48
2022-10-15T13:47:25.622Z,-157.70
2022-10-15T13:48:26.283Z,-157.70
2022-10-15T13:49:28.988Z,-157.70
2022-10-15T13:50:25.543Z,-157.70
2022-10-15T13:51:25.878Z,-157.70
2022-10-15T13:52:27.033Z,-156.48
2022-10-15T13:53:25.960Z,-156.48
2022-10-15T13:54:25.517Z,-156.48
2022-10-15T13:55:25.570Z,-156.48
2022-10-15T13:56:25.884Z,-156.48
2022-10-15T13:57:25.700Z,-156.48
2022-10-15T13:58:27.752Z,-156.48
2022-10-15T13:59:28.209Z,-156.48
2022-10-15T14:00:26.548Z,-156.48
2022-10-15T14:01:25.995Z,-156.48
2022-10-15T14:02:26.027Z,-156.48
2022-10-15T14:03:27.145Z,-156.48
2022-10-15T14:04:25.716Z,-156.48
2022-10-15T14:05:32.178Z,-156.48
2022-10-15T14:06:31.136Z,-156.48
2022-10-15T14:07:27.136Z,-156.48
2022-10-15T14:08:26.903Z,-156.48
2022-10-15T14:09:26.208Z,-156.48
2022-10-15T14:10:26.638Z,-156.48
2022-10-15T14:11:28.322Z,-156.48
2022-10-15T14:12:26.961Z,-156.48
2022-10-15T14:13:27.938Z,-156.48
2022-10-15T14:14:30.577Z,-156.48
2022-10-15T17:52:59.413Z,-151.61
2022-10-15T17:53:56.376Z,-151.61
2022-10-15T17:54:56.355Z,-151.61
2022-10-15T17:55:56.381Z,-151.61
2022-10-15T17:56:56.334Z,-151.61
2022-10-15T17:57:56.516Z,-151.61
2022-10-15T17:58:56.320Z,-151.61
2022-10-15T17:59:56.298Z,-151.61
2022-10-15T18:00:56.277Z,-151.61
2022-10-15T18:01:59.341Z,-151.61
2022-10-15T18:02:56.248Z,-151.61
2022-10-15T18:03:56.291Z,-151.61
2022-10-15T18:04:56.228Z,-151.61
2022-10-15T18:05:56.209Z,-151.61
2022-10-15T18:06:56.221Z,-151.61
2022-10-15T18:07:56.227Z,-151.61
2022-10-15T18:08:56.179Z,-151.61
2022-10-15T18:09:56.159Z,-151.61
2022-10-15T18:10:56.155Z,-151.61
2022-10-15T18:11:59.130Z,-151.61
2022-10-15T18:12:59.181Z,-151.61
2022-10-15T18:13:56.101Z,-151.61
2022-10-15T18:14:56.103Z,-151.61
2022-10-15T18:15:56.080Z,-151.61
2022-10-15T18:16:56.067Z,-151.61
2022-10-15T18:17:56.065Z,-151.61
2022-10-15T18:18:56.061Z,-150.39
2022-10-15T18:19:56.026Z,-150.39
2022-10-15T18:20:56.004Z,-150.39
2022-10-15T18:21:56.037Z,-150.39
2022-10-15T18:22:55.986Z,-150.39
2022-10-15T18:23:55.976Z,-150.39
2022-10-15T18:24:56.007Z,-150.39
2022-10-15T18:25:56.005Z,-150.39
2022-10-15T18:26:55.925Z,-150.39
2022-10-15T18:27:55.916Z,-150.39
2022-10-15T18:28:55.977Z,-150.39
2022-10-15T18:29:55.917Z,-150.39
2022-10-15T18:30:55.867Z,-150.39
2022-10-15T18:31:58.900Z,-150.39
2022-10-15T18:32:59.004Z,-150.39
2022-10-15T18:33:55.859Z,-150.39
2022-10-15T18:34:55.828Z,-150.39
2022-10-15T18:35:55.811Z,-150.39
2022-10-15T18:36:55.790Z,-150.39
2022-10-15T18:37:55.839Z,-150.39
2022-10-15T18:38:55.801Z,-150.39
2022-10-15T18:39:55.751Z,-150.39
2022-10-15T18:40:55.740Z,-150.39
2022-10-15T18:41:55.722Z,-150.39
2022-10-15T18:42:55.731Z,-150.39
2022-10-15T18:43:55.702Z,-150.39
2022-10-15T18:44:55.713Z,-150.39
2022-10-15T18:45:55.672Z,-150.39
2022-10-15T18:46:55.699Z,-150.39
2022-10-15T18:47:55.644Z,-150.39
2022-10-15T18:48:55.624Z,-150.39
2022-10-15T18:49:55.613Z,-150.39
2022-10-15T18:50:55.597Z,-150.39
2022-10-15T18:52:06.359Z,-150.39
2022-10-15T18:52:59.596Z,-150.39
2022-10-15T18:53:55.566Z,-150.39
2022-10-15T18:54:55.553Z,-150.39
2022-10-15T18:55:55.536Z,-150.39
2022-10-15T18:56:55.548Z,-150.39
2022-10-15T18:57:55.508Z,-150.39
2022-10-15T18:58:55.500Z,-150.39
2022-10-15T18:59:55.482Z,-150.39
2022-10-15T19:00:55.467Z,-150.39
2022-10-15T19:01:55.535Z,-150.39
2022-10-15T19:02:55.439Z,-150.39
2022-10-15T19:03:55.429Z,-150.39
2022-10-15T19:04:55.412Z,-150.39
2022-10-15T19:05:55.401Z,-150.39
2022-10-15T19:06:55.413Z,-150.39
2022-10-15T19:07:55.401Z,-150.39
2022-10-15T19:09:55.344Z,-150.39
2022-10-15T19:10:55.358Z,-150.39
2022-10-15T19:11:58.322Z,-150.39
2022-10-15T19:12:58.343Z,-150.39
2022-10-15T19:13:55.292Z,-150.39
2022-10-15T19:14:55.276Z,-150.39
2022-10-15T19:15:55.284Z,-150.39
2022-10-15T19:16:55.253Z,-150.39
2022-10-15T19:17:55.305Z,-150.39
2022-10-15T19:18:55.287Z,-150.39
2022-10-15T19:19:55.206Z,-150.39
2022-10-15T19:20:55.202Z,-150.39
2022-10-15T19:21:55.177Z,-150.39
2022-10-15T19:22:55.177Z,-150.39
2022-10-15T19:23:55.173Z,-150.39
2022-10-15T19:24:55.168Z,-150.39
2022-10-15T19:25:55.138Z,-150.39
2022-10-15T19:26:55.168Z,-150.39
2022-10-15T19:27:55.129Z,-150.39
2022-10-15T19:28:55.150Z,-150.39
2022-10-15T19:29:55.112Z,-150.39
2022-10-15T19:30:55.062Z,-150.39
2022-10-15T19:31:58.050Z,-150.39
2022-10-15T19:32:58.052Z,-150.39
2022-10-15T19:33:55.031Z,-150.39
2022-10-15T19:34:55.030Z,-150.39
2022-10-15T19:35:54.990Z,-150.39
2022-10-15T19:36:54.980Z,-150.39
2022-10-15T19:37:54.971Z,-150.39
2022-10-15T19:38:54.952Z,-150.39
2022-10-15T19:39:54.962Z,-150.39
2022-10-15T19:40:54.946Z,-150.39
2022-10-15T19:41:54.912Z,-150.39
2022-10-15T19:42:54.910Z,-150.39
2022-10-15T19:43:54.881Z,-150.39
2022-10-15T19:44:54.924Z,-150.39
2022-10-15T19:45:54.878Z,-150.39
2022-10-15T19:46:54.845Z,-150.39
2022-10-15T19:47:57.342Z,-150.39
2022-10-15T19:48:54.815Z,-150.39
2022-10-15T19:49:54.796Z,-150.39
2022-10-15T19:50:54.826Z,-150.39
2022-10-15T19:51:57.776Z,-150.39
2022-10-15T19:52:57.780Z,-150.39
2022-10-15T19:53:54.748Z,-150.39
2022-10-15T19:54:54.752Z,-150.39
2022-10-15T19:55:54.828Z,-150.39
2022-10-15T19:56:54.711Z,-150.39
2022-10-15T19:57:54.696Z,-150.39
2022-10-15T19:58:54.680Z,-149.17
2022-10-15T19:59:54.679Z,-149.17
2022-10-15T20:00:54.653Z,-149.17
2022-10-15T20:01:54.673Z,-149.17
2022-10-15T20:02:54.628Z,-149.17
2022-10-15T20:03:54.634Z,-149.17
2022-10-15T20:04:54.601Z,-149.17
2022-10-15T20:05:54.583Z,-149.17
2022-10-15T20:06:54.617Z,-149.17
2022-10-15T20:07:54.605Z,-149.17
2022-10-15T20:08:54.543Z,-149.17
2022-10-15T20:09:54.535Z,-149.17
2022-10-15T20:10:54.518Z,-147.96
2022-10-15T20:11:57.510Z,-147.96
2022-10-15T20:12:57.535Z,-147.96
2022-10-15T20:13:54.475Z,-147.96
2022-10-15T20:14:54.465Z,-147.96
2022-10-15T20:15:54.456Z,-147.96
2022-10-15T20:16:54.437Z,-147.96
2022-10-15T20:17:54.456Z,-147.96
2022-10-15T20:18:54.407Z,-147.96
2022-10-15T20:19:54.408Z,-147.96
2022-10-15T20:20:54.387Z,-146.74
2022-10-15T20:21:54.380Z,-146.74
2022-10-15T20:22:54.361Z,-146.74
2022-10-15T20:23:54.368Z,-146.74
2022-10-15T20:24:54.329Z,-146.74
2022-10-15T20:25:54.325Z,-146.74
2022-10-15T20:26:54.304Z,-146.74
2022-10-15T20:27:54.337Z,-146.74
2022-10-15T20:28:54.302Z,-146.74
2022-10-15T20:29:54.260Z,-146.74
2022-10-15T20:32:05.712Z,-146.74
2022-10-15T20:32:58.311Z,-146.74
2022-10-15T20:33:54.222Z,-146.74
2022-10-15T20:34:54.195Z,-146.74
2022-10-15T20:35:54.181Z,-146.74
2022-10-15T20:36:54.177Z,-146.74
2022-10-15T20:37:54.158Z,-146.74
2022-10-15T20:38:54.164Z,-146.74
2022-10-15T20:39:54.240Z,-146.74
2022-10-15T20:40:54.156Z,-146.74
2022-10-15T20:41:54.142Z,-146.74
2022-10-15T20:42:54.085Z,-146.74
2022-10-15T20:43:54.071Z,-146.74
2022-10-15T20:44:54.064Z,-146.74
2022-10-15T20:45:54.074Z,-146.74
2022-10-15T20:46:54.056Z,-146.74
2022-10-15T20:47:54.024Z,-146.74
2022-10-15T20:48:54.034Z,-146.74
2022-10-15T20:49:53.987Z,-146.74
2022-10-15T20:50:54.008Z,-146.74
2022-10-15T20:51:57.018Z,-145.52
2022-10-15T20:52:56.969Z,-145.52
2022-10-15T20:53:53.956Z,-145.52
2022-10-15T20:54:53.929Z,-145.52
2022-10-15T20:55:53.910Z,-145.52
2022-10-15T20:56:53.956Z,-145.52
2022-10-15T20:57:53.881Z,-145.52
2022-10-15T20:58:53.871Z,-145.52
2022-10-15T20:59:53.862Z,-145.52
2022-10-15T21:00:53.869Z,-145.52
2022-10-15T21:01:53.866Z,-145.52
2022-10-15T21:02:53.852Z,-145.52
2022-10-15T21:03:53.824Z,-145.52
2022-10-15T21:04:53.860Z,-144.30
2022-10-15T21:05:53.772Z,-144.30
2022-10-15T21:06:53.771Z,-144.30
2022-10-15T21:07:53.756Z,-144.30
2022-10-15T21:08:53.734Z,-144.30
2022-10-15T21:09:53.722Z,-144.30
2022-10-15T21:10:53.744Z,-144.30
2022-10-15T21:11:56.695Z,-144.30
2022-10-15T21:12:56.695Z,-144.30
2022-10-15T21:13:53.697Z,-144.30
2022-10-15T21:14:53.662Z,-144.30
2022-10-15T21:15:53.638Z,-144.30
2022-10-15T21:16:53.630Z,-144.30
2022-10-15T21:17:53.623Z,-143.08
2022-10-15T21:18:53.645Z,-143.08
2022-10-15T21:19:53.615Z,-143.08
2022-10-15T21:20:53.575Z,-143.08
2022-10-15T21:21:53.559Z,-143.08
2022-10-15T21:22:53.547Z,-143.08
2022-10-15T21:23:53.527Z,-143.08
2022-10-15T21:24:53.551Z,-143.08
2022-10-15T21:25:53.530Z,-143.08
2022-10-15T21:26:53.489Z,-143.08
2022-10-15T21:27:53.480Z,-143.08
2022-10-15T21:28:53.522Z,-143.08
2022-10-15T21:29:53.450Z,-143.08
2022-10-15T21:30:53.442Z,-143.08
2022-10-15T21:31:56.450Z,-143.08
2022-10-15T21:32:56.422Z,-143.08
2022-10-15T21:33:53.401Z,-143.08
2022-10-15T21:34:53.383Z,-143.08
2022-10-15T21:35:53.412Z,-143.08
2022-10-15T21:36:53.361Z,-143.08
2022-10-15T21:37:53.344Z,-143.08
2022-10-15T21:38:53.337Z,-143.08
2022-10-15T21:39:53.313Z,-143.08
2022-10-15T21:40:53.303Z,-143.08
2022-10-15T21:41:53.335Z,-143.08
2022-10-15T21:42:53.275Z,-143.08
2022-10-15T21:43:53.266Z,-143.08
2022-10-15T21:44:53.256Z,-143.08
2022-10-15T21:45:53.236Z,-143.08
2022-10-15T21:46:53.225Z,-143.08
2022-10-15T21:47:53.226Z,-143.08
2022-10-15T21:48:53.206Z,-143.08
2022-10-15T21:49:53.177Z,-143.08
2022-10-15T21:50:53.169Z,-143.08
2022-10-15T21:51:56.198Z,-143.08
2022-10-15T21:52:56.231Z,-143.08
2022-10-15T21:53:53.126Z,-143.08
2022-10-15T21:54:53.115Z,-143.08
2022-10-15T21:55:53.109Z,-143.08
2022-10-15T21:56:53.086Z,-143.08
2022-10-15T21:57:53.111Z,-143.08
2022-10-15T21:58:53.059Z,-143.08
2022-10-15T21:59:53.041Z,-143.08
2022-10-15T22:00:53.030Z,-143.08
2022-10-15T22:01:53.202Z,-143.08
2022-10-15T22:02:53.007Z,-143.08
2022-10-15T22:03:53.009Z,-143.08
2022-10-15T22:04:52.973Z,-143.08
2022-10-15T22:05:52.951Z,-143.08
2022-10-15T22:06:52.964Z,-143.08
2022-10-15T22:07:52.931Z,-143.08
2022-10-15T22:08:52.954Z,-143.08
2022-10-15T22:09:52.893Z,-143.08
2022-10-15T22:10:52.895Z,-143.08
2022-10-15T22:11:55.888Z,-141.87
2022-10-15T22:12:55.873Z,-141.87
2022-10-15T22:13:52.844Z,-141.87
2022-10-15T22:14:52.905Z,-141.87
2022-10-15T22:15:52.818Z,-141.87
2022-10-15T22:16:52.807Z,-141.87
2022-10-15T22:17:52.817Z,-141.87
2022-10-15T22:18:52.776Z,-141.87
2022-10-15T22:19:52.766Z,-141.87
2022-10-15T22:20:52.820Z,-141.87
2022-10-15T22:21:52.738Z,-141.87
2022-10-15T22:22:52.727Z,-141.87
2022-10-15T22:23:52.707Z,-141.87
2022-10-15T22:24:52.692Z,-141.87
2022-10-15T22:25:52.679Z,-141.87
2022-10-15T22:26:52.721Z,-140.65
2022-10-15T22:27:52.649Z,-140.65
2022-10-15T22:28:52.713Z,-140.65
2022-10-15T22:29:52.642Z,-141.87
2022-10-15T22:30:52.623Z,-140.65
2022-10-15T22:31:55.649Z,-141.87
2022-10-15T22:32:55.595Z,-140.65
2022-10-15T22:33:52.575Z,-141.87
2022-10-15T22:34:52.559Z,-140.65
2022-10-15T22:35:52.562Z,-141.87
2022-10-15T22:36:52.574Z,-141.87
2022-10-15T22:37:52.513Z,-141.87
2022-10-15T22:38:52.578Z,-141.87
2022-10-15T22:39:52.484Z,-141.87
2022-10-15T22:40:52.479Z,-141.87
2022-10-15T22:41:52.456Z,-141.87
2022-10-15T22:42:52.477Z,-141.87
2022-10-15T22:43:52.426Z,-141.87
2022-10-15T22:44:52.418Z,-141.87
2022-10-15T22:45:52.406Z,-141.87
2022-10-15T22:46:52.388Z,-141.87
2022-10-15T22:47:52.404Z,-141.87
2022-10-15T22:48:52.366Z,-140.65
2022-10-15T22:49:53.084Z,-140.65
2022-10-15T22:50:52.338Z,-140.65
2022-10-15T22:51:55.322Z,-140.65
2022-10-15T22:52:55.319Z,-140.65
2022-10-15T22:53:52.289Z,-140.65
2022-10-15T22:54:52.278Z,-140.65
2022-10-15T22:55:52.290Z,-140.65
2022-10-15T22:56:52.250Z,-140.65
2022-10-15T22:57:52.230Z,-140.65
2022-10-15T22:58:52.220Z,-140.65
2022-10-15T22:59:55.884Z,-140.65
2022-10-15T23:00:53.255Z,-140.65
2022-10-15T23:01:52.202Z,-140.65
2022-10-15T23:02:52.161Z,-140.65
2022-10-15T23:03:52.145Z,-140.65
2022-10-15T23:04:52.134Z,-140.65
2022-10-15T23:05:52.163Z,-140.65
2022-10-15T23:06:52.150Z,-140.65
2022-10-15T23:07:52.094Z,-140.65
2022-10-15T23:08:52.087Z,-140.65
2022-10-15T23:09:52.078Z,-140.65
2022-10-15T23:10:52.057Z,-140.65
2022-10-15T23:11:55.114Z,-140.65
2022-10-15T23:12:55.062Z,-140.65
2022-10-15T23:13:52.006Z,-140.65
2022-10-15T23:14:51.998Z,-140.65
2022-10-15T23:15:51.978Z,-140.65
2022-10-15T23:16:51.966Z,-140.65
2022-10-15T23:17:52.019Z,-140.65
2022-10-15T23:18:51.946Z,-140.65
2022-10-15T23:19:51.919Z,-140.65
2022-10-15T23:20:51.916Z,-140.65
2022-10-15T23:21:51.889Z,-140.65
2022-10-15T23:22:51.891Z,-140.65
2022-10-15T23:23:51.920Z,-140.65
2022-10-15T23:24:51.851Z,-140.65
2022-10-15T23:25:51.851Z,-140.65
2022-10-15T23:26:51.827Z,-140.65
2022-10-15T23:27:51.811Z,-140.65
2022-10-15T23:28:51.848Z,-141.87
2022-10-15T23:30:01.822Z,-141.87
2022-10-15T23:30:52.771Z,-141.87
2022-10-15T23:31:54.752Z,-141.87
2022-10-15T23:32:54.768Z,-141.87
2022-10-15T23:33:51.729Z,-141.87
2022-10-15T23:34:51.716Z,-141.87
2022-10-15T23:35:51.742Z,-141.87
2022-10-15T23:36:51.676Z,-141.87
2022-10-15T23:37:51.672Z,-141.87
2022-10-15T23:38:51.657Z,-141.87
2022-10-15T23:39:51.645Z,-141.87
2022-10-15T23:40:51.636Z,-141.87
2022-10-15T23:41:51.645Z,-141.87
2022-10-15T23:42:51.597Z,-141.87
2022-10-15T23:43:51.603Z,-141.87
2022-10-15T23:44:51.568Z,-141.87
2022-10-15T23:45:51.748Z,-141.87
2022-10-15T23:46:51.538Z,-141.87
2022-10-15T23:47:51.549Z,-141.87
2022-10-15T23:48:51.522Z,-141.87
2022-10-15T23:49:51.509Z,-141.87
2022-10-15T23:50:51.507Z,-141.87
2022-10-15T23:51:54.508Z,-141.87
2022-10-15T23:52:54.472Z,-141.87
2022-10-15T23:53:51.461Z,-141.87
2022-10-15T23:54:51.470Z,-141.87
2022-10-15T23:55:51.420Z,-141.87
2022-10-15T23:56:51.401Z,-141.87
2022-10-15T23:57:51.418Z,-141.87
2022-10-15T23:58:51.373Z,-140.65
2022-10-15T23:59:51.362Z,-141.87
